createdAt,value
2018-11-05T00:01:27.698Z,77.93
2018-11-05T00:03:55.767Z,78.28
2018-11-05T00:06:23.939Z,77.85
2018-11-05T00:08:51.922Z,77.69
2018-11-05T00:11:20.421Z,78.25
2018-11-05T00:13:48.375Z,77.61
2018-11-05T00:16:16.484Z,78.60
2018-11-05T00:18:44.431Z,78.93
2018-11-05T00:21:12.357Z,80.08
2018-11-05T00:23:40.478Z,80.23
2018-11-05T00:26:08.630Z,80.02
2018-11-05T00:28:36.671Z,81.06
2018-11-05T00:31:05.046Z,81.12
2018-11-05T00:33:33.901Z,78.81
2018-11-05T00:36:02.035Z,77.12
2018-11-05T00:38:30.570Z,77.19
2018-11-05T00:40:58.530Z,79.04
2018-11-05T00:43:26.503Z,81.54
2018-11-05T00:45:56.012Z,81.18
2018-11-05T00:48:24.267Z,81.82
2018-11-05T00:50:52.392Z,81.41
2018-11-05T00:53:20.393Z,81.58
2018-11-05T00:55:48.438Z,83.62
2018-11-05T00:58:16.469Z,84.29
2018-11-05T01:00:44.417Z,85.98
2018-11-05T01:03:12.335Z,86.65
2018-11-05T01:05:40.344Z,87.63
2018-11-05T01:08:08.334Z,88.39
2018-11-05T01:10:36.252Z,89.08
2018-11-05T01:13:04.202Z,90.09
2018-11-05T01:15:32.338Z,90.88
2018-11-05T01:18:00.626Z,90.75
2018-11-05T01:20:28.525Z,91.54
2018-11-05T01:22:56.465Z,92.18
2018-11-05T01:25:24.388Z,91.82
2018-11-05T01:27:52.454Z,92.26
2018-11-05T01:30:20.410Z,91.47
2018-11-05T01:32:48.382Z,90.05
2018-11-05T01:35:16.346Z,90.73
2018-11-05T01:37:44.259Z,91.62
2018-11-05T01:40:13.643Z,91.72
2018-11-05T01:42:41.685Z,90.85
2018-11-05T01:45:11.066Z,89.97
2018-11-05T01:47:39.250Z,88.79
2018-11-05T01:50:08.879Z,88.22
2018-11-05T01:52:36.890Z,89.23
2018-11-05T01:55:05.793Z,89.02
2018-11-05T01:57:33.875Z,88.40
2018-11-05T02:00:01.869Z,89.41
2018-11-05T02:02:30.063Z,88.72
2018-11-05T02:04:58.822Z,88.04
2018-11-05T02:07:26.923Z,88.16
2018-11-05T02:09:54.897Z,87.83
2018-11-05T02:12:22.939Z,87.52
2018-11-05T02:14:51.009Z,87.56
2018-11-05T02:17:18.918Z,87.53
2018-11-05T02:19:47.045Z,87.45
2018-11-05T02:22:15.042Z,86.43
2018-11-05T02:24:43.238Z,86.05
2018-11-05T02:27:11.301Z,86.15
2018-11-05T02:29:39.168Z,86.59
2018-11-05T02:32:07.200Z,87.25
2018-11-05T02:34:35.193Z,87.56
2018-11-05T02:37:03.231Z,87.31
2018-11-05T02:39:31.374Z,87.87
2018-11-05T02:41:59.365Z,87.73
2018-11-05T02:44:27.260Z,88.08
2018-11-05T02:46:55.289Z,88.27
2018-11-05T02:49:23.363Z,90.00
2018-11-05T02:51:51.315Z,90.09
2018-11-05T02:54:19.289Z,90.30
2018-11-05T02:56:47.240Z,90.49
2018-11-05T02:59:15.134Z,90.62
2018-11-05T03:01:43.124Z,90.75
2018-11-05T03:04:10.975Z,90.86
2018-11-05T03:06:38.979Z,90.79
2018-11-05T03:09:09.738Z,90.52
2018-11-05T03:11:37.907Z,90.75
2018-11-05T03:14:06.385Z,90.92
2018-11-05T03:16:34.753Z,90.04
2018-11-05T03:19:02.618Z,89.50
2018-11-05T03:21:30.811Z,90.90
2018-11-05T03:23:58.888Z,92.75
2018-11-05T03:26:27.851Z,92.92
2018-11-05T03:28:55.771Z,93.12
2018-11-05T03:31:24.107Z,93.56
2018-11-05T03:33:52.335Z,93.04
2018-11-05T03:36:20.247Z,93.14
2018-11-05T03:38:48.119Z,93.24
2018-11-05T03:41:16.082Z,92.41
2018-11-05T03:43:44.040Z,92.65
2018-11-05T03:46:12.080Z,92.12
2018-11-05T03:48:40.115Z,93.18
2018-11-05T03:51:08.160Z,93.23
2018-11-05T03:53:36.062Z,92.93
2018-11-05T03:56:04.235Z,93.68
2018-11-05T03:58:32.183Z,93.86
2018-11-05T04:01:00.236Z,93.36
2018-11-05T04:03:28.266Z,92.84
2018-11-05T04:05:56.342Z,92.97
2018-11-05T04:08:25.172Z,93.30
2018-11-05T04:10:53.134Z,93.74
2018-11-05T04:13:21.049Z,94.25
2018-11-05T04:15:49.091Z,94.22
2018-11-05T04:18:17.015Z,94.32
2018-11-05T04:20:44.954Z,94.12
2018-11-05T04:23:12.914Z,93.67
2018-11-05T04:25:40.831Z,94.03
2018-11-05T04:28:08.777Z,93.61
2018-11-05T04:30:37.086Z,93.24
2018-11-05T04:33:05.128Z,93.29
2018-11-05T04:35:33.086Z,93.07
2018-11-05T04:38:01.765Z,93.61
2018-11-05T04:40:30.180Z,93.99
2018-11-05T04:43:00.491Z,94.47
2018-11-05T04:45:28.586Z,94.52
2018-11-05T04:47:57.036Z,94.86
2018-11-05T04:50:24.965Z,94.94
2018-11-05T04:52:53.753Z,95.19
2018-11-05T04:55:21.725Z,95.17
2018-11-05T04:57:49.742Z,95.13
2018-11-05T05:00:18.310Z,94.09
2018-11-05T05:02:46.345Z,92.55
2018-11-05T05:05:15.424Z,91.70
2018-11-05T05:07:43.414Z,93.06
2018-11-05T05:10:11.441Z,92.62
2018-11-05T05:12:40.622Z,93.37
2018-11-05T05:15:09.124Z,94.17
2018-11-05T05:17:37.270Z,94.64
2018-11-05T05:20:07.669Z,94.79
2018-11-05T05:22:37.102Z,94.30
2018-11-05T05:25:05.219Z,94.00
2018-11-05T05:27:33.339Z,94.76
2018-11-05T05:30:01.429Z,94.40
2018-11-05T05:32:30.015Z,92.36
2018-11-05T05:34:58.173Z,90.79
2018-11-05T05:37:26.201Z,89.49
2018-11-05T05:39:54.263Z,90.27
2018-11-05T05:42:22.860Z,90.28
2018-11-05T05:44:50.860Z,89.51
2018-11-05T05:47:18.803Z,88.63
2018-11-05T05:49:46.709Z,89.24
2018-11-05T05:52:14.795Z,90.54
2018-11-05T05:54:42.867Z,90.89
2018-11-05T05:57:10.948Z,91.71
2018-11-05T05:59:39.580Z,91.49
2018-11-05T06:02:08.115Z,91.22
2018-11-05T06:04:36.210Z,90.44
2018-11-05T06:07:05.519Z,89.25
2018-11-05T06:09:33.667Z,87.39
2018-11-05T06:12:03.133Z,86.75
2018-11-05T06:14:31.172Z,86.96
2018-11-05T06:16:59.110Z,86.43
2018-11-05T06:19:27.145Z,88.09
2018-11-05T06:21:55.210Z,89.00
2018-11-05T06:24:23.152Z,89.09
2018-11-05T06:26:51.653Z,89.11
2018-11-05T06:29:19.787Z,88.81
2018-11-05T06:31:47.740Z,89.07
2018-11-05T06:34:15.662Z,89.00
2018-11-05T06:36:43.967Z,87.38
2018-11-05T06:39:12.854Z,86.60
2018-11-05T06:41:41.794Z,86.14
2018-11-05T06:44:09.858Z,85.68
2018-11-05T06:46:38.180Z,86.77
2018-11-05T06:49:06.438Z,86.35
2018-11-05T06:51:34.445Z,85.68
2018-11-05T06:54:03.986Z,85.75
2018-11-05T06:56:32.374Z,85.31
2018-11-05T06:59:00.309Z,85.37
2018-11-05T07:01:29.764Z,85.14
2018-11-05T07:03:57.889Z,83.89
2018-11-05T07:06:26.271Z,83.27
2018-11-05T07:08:54.252Z,84.19
2018-11-05T07:11:22.263Z,83.74
2018-11-05T07:13:50.277Z,82.66
2018-11-05T07:16:18.557Z,81.33
2018-11-05T07:18:46.712Z,80.40
2018-11-05T07:21:14.498Z,78.83
2018-11-05T07:23:42.649Z,79.68
2018-11-05T07:26:10.915Z,79.95
2018-11-05T07:28:38.917Z,79.72
2018-11-05T07:31:06.930Z,77.59
2018-11-05T07:33:37.765Z,77.15
2018-11-05T07:36:06.090Z,76.86
2018-11-05T07:38:35.015Z,76.95
2018-11-05T07:41:03.576Z,76.51
2018-11-05T07:43:33.363Z,76.64
2018-11-05T07:46:01.416Z,76.00
2018-11-05T07:48:31.298Z,75.30
2018-11-05T07:50:59.939Z,74.01
2018-11-05T07:53:28.203Z,73.84
2018-11-05T07:55:58.574Z,73.24
2018-11-05T07:58:26.888Z,71.24
2018-11-05T08:00:56.910Z,71.59
2018-11-05T08:03:33.578Z,71.59
2018-11-05T08:06:02.567Z,71.78
2018-11-05T08:08:30.753Z,71.57
2018-11-05T08:10:58.648Z,71.64
2018-11-05T08:13:26.863Z,70.56
2018-11-05T08:15:55.024Z,71.15
2018-11-05T08:18:22.998Z,70.21
2018-11-05T08:20:51.021Z,70.93
2018-11-05T08:23:19.039Z,69.51
2018-11-05T08:25:47.178Z,69.27
2018-11-05T08:28:15.746Z,69.39
2018-11-05T08:30:43.733Z,70.00
2018-11-05T08:33:13.288Z,70.41
2018-11-05T08:35:41.147Z,70.05
2018-11-05T08:38:09.450Z,69.37
2018-11-05T08:40:37.493Z,65.95
2018-11-05T08:43:06.862Z,66.14
2018-11-05T08:45:36.002Z,65.45
2018-11-05T08:48:04.335Z,65.58
2018-11-05T08:50:32.444Z,66.37
2018-11-05T08:53:00.430Z,64.60
2018-11-05T08:55:28.508Z,64.09
2018-11-05T08:57:57.267Z,64.41
2018-11-05T09:00:30.834Z,64.02
2018-11-05T09:02:58.914Z,64.40
2018-11-05T09:05:26.981Z,64.42
2018-11-05T09:07:55.454Z,62.88
2018-11-05T09:10:23.718Z,62.84
2018-11-05T09:12:51.712Z,63.06
2018-11-05T09:15:20.786Z,62.19
2018-11-05T09:17:49.857Z,63.74
2018-11-05T09:20:18.569Z,63.95
2018-11-05T09:22:47.327Z,62.85
2018-11-05T09:25:15.998Z,63.42
2018-11-05T09:27:44.178Z,63.21
2018-11-05T09:30:14.719Z,63.50
2018-11-05T09:32:44.668Z,61.51
2018-11-05T09:35:12.822Z,61.37
2018-11-05T09:37:40.873Z,59.93
2018-11-05T09:40:12.390Z,59.02
2018-11-05T09:42:45.396Z,60.81
2018-11-05T09:45:17.143Z,58.95
2018-11-05T09:47:45.747Z,58.93
2018-11-05T09:50:14.028Z,58.86
2018-11-05T09:52:42.374Z,58.44
2018-11-05T09:55:11.412Z,58.46
2018-11-05T09:57:39.562Z,59.11
2018-11-05T10:00:15.370Z,58.59
2018-11-05T10:02:48.851Z,57.91
2018-11-05T10:05:17.403Z,56.05
2018-11-05T10:08:02.896Z,56.51
2018-11-05T10:10:31.483Z,55.36
2018-11-05T10:12:59.578Z,55.93
2018-11-05T10:15:27.600Z,54.61
2018-11-05T10:17:55.693Z,54.03
2018-11-05T10:20:24.474Z,56.87
2018-11-05T10:22:52.837Z,54.61
2018-11-05T10:25:21.827Z,52.65
2018-11-05T10:27:50.822Z,52.47
2018-11-05T10:30:21.067Z,52.56
2018-11-05T10:32:49.888Z,52.44
2018-11-05T10:35:18.370Z,51.35
2018-11-05T10:37:46.374Z,51.19
2018-11-05T10:40:17.204Z,50.95
2018-11-05T10:42:47.626Z,50.53
2018-11-05T10:45:16.829Z,51.97
2018-11-05T10:47:45.236Z,52.37
2018-11-05T10:50:14.709Z,52.22
2018-11-05T10:52:43.937Z,53.37
2018-11-05T10:55:12.092Z,54.51
2018-11-05T10:57:40.861Z,51.60
2018-11-05T11:00:18.469Z,53.22
2018-11-05T11:02:51.948Z,53.61
2018-11-05T11:05:21.466Z,50.80
2018-11-05T11:07:49.618Z,52.71
2018-11-05T11:10:17.716Z,51.44
2018-11-05T11:12:45.782Z,51.51
2018-11-05T11:15:13.915Z,51.53
2018-11-05T11:18:23.519Z,50.00
2018-11-05T11:23:47.198Z,49.26
2018-11-05T11:26:57.362Z,49.12
2018-11-05T11:29:25.478Z,49.27
2018-11-05T11:31:53.435Z,49.11
2018-11-05T11:34:21.398Z,48.43
2018-11-05T11:36:49.379Z,48.21
2018-11-05T11:39:17.374Z,48.63
2018-11-05T11:41:45.600Z,50.42
2018-11-05T11:44:14.474Z,51.44
2018-11-05T11:46:42.680Z,49.48
2018-11-05T11:49:11.044Z,49.77
2018-11-05T11:51:39.481Z,48.62
2018-11-05T11:54:07.620Z,48.11
2018-11-05T11:56:36.306Z,48.55
2018-11-05T11:59:04.859Z,48.60
2018-11-05T12:01:37.510Z,48.36
2018-11-05T12:04:06.892Z,49.59
2018-11-05T12:06:35.034Z,47.92
2018-11-05T12:09:03.414Z,47.66
2018-11-05T12:11:39.666Z,46.51
2018-11-05T12:14:07.868Z,46.42
2018-11-05T12:16:38.795Z,46.34
2018-11-05T12:19:07.047Z,45.98
2018-11-05T12:21:35.472Z,45.79
2018-11-05T12:24:03.796Z,45.35
2018-11-05T12:26:33.121Z,45.42
2018-11-05T12:29:01.446Z,45.19
2018-11-05T12:31:30.470Z,44.99
2018-11-05T12:33:58.783Z,44.26
2018-11-05T12:36:26.743Z,41.36
2018-11-05T12:38:54.758Z,41.69
2018-11-05T12:41:23.367Z,40.70
2018-11-05T12:43:52.612Z,38.95
2018-11-05T12:46:20.600Z,39.60
2018-11-05T12:48:49.630Z,40.57
2018-11-05T12:51:17.624Z,38.99
2018-11-05T12:53:45.950Z,39.73
2018-11-05T12:56:14.164Z,39.52
2018-11-05T12:58:42.215Z,38.85
2018-11-05T13:01:10.196Z,39.39
2018-11-05T13:03:38.133Z,38.67
2018-11-05T13:06:06.252Z,39.22
2018-11-05T13:08:34.361Z,38.79
2018-11-05T13:11:02.367Z,38.69
2018-11-05T13:13:30.493Z,39.11
2018-11-05T13:15:58.772Z,38.74
2018-11-05T13:18:27.013Z,37.98
2018-11-05T13:20:55.094Z,38.70
2018-11-05T13:23:28.586Z,38.70
2018-11-05T13:25:56.997Z,39.19
2018-11-05T13:28:25.253Z,38.02
2018-11-05T13:30:53.164Z,37.74
2018-11-05T13:33:21.322Z,36.70
2018-11-05T13:35:49.305Z,36.76
2018-11-05T13:38:18.203Z,36.58
2018-11-05T13:40:45.816Z,36.91
2018-11-05T13:43:13.795Z,36.75
2018-11-05T13:45:42.166Z,36.54
2018-11-05T13:48:10.301Z,36.63
2018-11-05T13:50:38.755Z,36.27
2018-11-05T13:53:06.744Z,35.54
2018-11-05T13:55:34.790Z,35.93
2018-11-05T13:58:02.781Z,35.73
2018-11-05T14:00:30.838Z,34.69
2018-11-05T14:02:59.124Z,35.17
2018-11-05T14:05:27.197Z,35.53
2018-11-05T14:07:55.429Z,35.33
2018-11-05T14:10:23.412Z,35.83
2018-11-05T14:12:51.683Z,35.40
2018-11-05T14:15:20.124Z,35.44
2018-11-05T14:17:48.222Z,35.45
2018-11-05T14:20:17.618Z,35.31
2018-11-05T14:22:45.662Z,35.79
2018-11-05T14:25:15.879Z,35.59
2018-11-05T14:27:46.330Z,35.08
2018-11-05T14:30:14.518Z,35.37
2018-11-05T14:32:43.508Z,35.52
2018-11-05T14:35:11.516Z,35.62
2018-11-05T14:37:39.823Z,35.34
2018-11-05T14:40:09.031Z,35.33
2018-11-05T14:42:37.225Z,35.07
2018-11-05T14:45:07.472Z,34.73
2018-11-05T14:47:35.378Z,35.02
2018-11-05T14:50:03.751Z,35.12
2018-11-05T14:52:31.895Z,35.03
2018-11-05T14:54:59.956Z,34.99
2018-11-05T14:57:28.324Z,35.09
2018-11-05T14:59:56.532Z,34.92
2018-11-05T15:02:29.987Z,34.41
2018-11-05T15:04:58.048Z,34.73
2018-11-05T15:07:26.071Z,34.71
2018-11-05T15:09:54.110Z,35.00
2018-11-05T15:12:22.213Z,35.69
2018-11-05T15:14:50.322Z,35.04
2018-11-05T15:17:18.997Z,35.26
2018-11-05T15:19:47.693Z,34.46
2018-11-05T15:22:15.815Z,34.98
2018-11-05T15:24:44.115Z,35.52
2018-11-05T15:27:12.172Z,34.64
2018-11-05T15:29:40.276Z,35.27
2018-11-05T15:32:08.778Z,35.23
2018-11-05T15:34:36.960Z,35.13
2018-11-05T15:37:05.135Z,34.90
2018-11-05T15:39:33.034Z,34.93
2018-11-05T15:42:01.123Z,35.30
2018-11-05T15:44:29.013Z,35.72
2018-11-05T15:46:57.089Z,35.82
2018-11-05T15:49:25.093Z,36.26
2018-11-05T15:51:53.432Z,36.10
2018-11-05T15:54:21.387Z,36.22
2018-11-05T15:56:49.216Z,36.88
2018-11-05T15:59:17.229Z,37.54
2018-11-05T16:01:45.414Z,38.07
2018-11-05T16:04:13.551Z,39.25
2018-11-05T16:06:41.887Z,39.28
2018-11-05T16:09:11.383Z,40.18
2018-11-05T16:11:39.712Z,40.32
2018-11-05T16:14:07.982Z,40.96
2018-11-05T16:16:36.170Z,41.68
2018-11-05T16:19:04.284Z,41.85
2018-11-05T16:21:35.775Z,41.03
2018-11-05T16:24:03.851Z,42.12
2018-11-05T16:26:32.280Z,41.49
2018-11-05T16:29:00.400Z,41.59
2018-11-05T16:31:29.543Z,40.22
2018-11-05T16:33:57.739Z,40.01
2018-11-05T16:36:25.907Z,40.80
2018-11-05T16:38:53.981Z,41.39
2018-11-05T16:41:21.899Z,42.64
2018-11-05T16:43:49.947Z,42.93
2018-11-05T16:46:18.474Z,42.93
2018-11-05T16:48:46.625Z,43.84
2018-11-05T16:51:14.855Z,44.52
2018-11-05T16:53:43.006Z,45.65
2018-11-05T16:56:10.919Z,47.06
2018-11-05T16:58:38.847Z,47.45
2018-11-05T17:01:07.180Z,48.56
2018-11-05T17:03:35.695Z,49.33
2018-11-05T17:06:05.127Z,50.07
2018-11-05T17:08:41.023Z,51.15
2018-11-05T17:11:09.142Z,52.30
2018-11-05T17:13:37.783Z,52.87
2018-11-05T17:16:07.799Z,54.06
2018-11-05T17:18:36.065Z,55.77
2018-11-05T17:21:04.089Z,57.00
2018-11-05T17:23:37.449Z,57.53
2018-11-05T17:26:07.720Z,57.91
2018-11-05T17:28:36.081Z,58.83
2018-11-05T17:31:06.798Z,59.08
2018-11-05T17:33:39.291Z,59.88
2018-11-05T17:36:07.270Z,59.61
2018-11-05T17:38:35.310Z,60.79
2018-11-05T17:41:03.356Z,61.33
2018-11-05T17:43:31.426Z,61.91
2018-11-05T17:46:00.036Z,62.65
2018-11-05T17:48:28.096Z,63.16
2018-11-05T17:50:56.239Z,63.45
2018-11-05T17:53:24.528Z,64.23
2018-11-05T17:55:52.887Z,64.55
2018-11-05T17:58:20.987Z,64.82
2018-11-05T18:00:49.030Z,64.89
2018-11-05T18:03:16.919Z,65.55
2018-11-05T18:05:45.192Z,65.44
2018-11-05T18:08:13.952Z,65.80
2018-11-05T18:10:42.763Z,65.93
2018-11-05T18:13:10.754Z,66.17
2018-11-05T18:15:39.155Z,65.94
2018-11-05T18:18:07.091Z,66.98
2018-11-05T18:20:35.698Z,66.08
2018-11-05T18:23:04.624Z,66.80
2018-11-05T18:25:32.649Z,66.18
2018-11-05T18:28:00.811Z,66.05
2018-11-05T18:30:28.759Z,65.64
2018-11-05T18:32:56.943Z,64.23
2018-11-05T18:35:26.111Z,65.17
2018-11-05T18:37:54.233Z,66.84
2018-11-05T18:40:22.282Z,65.13
2018-11-05T18:42:50.282Z,64.36
2018-11-05T18:45:18.560Z,65.19
2018-11-05T18:47:46.659Z,65.10
2018-11-05T18:50:16.837Z,64.96
2018-11-05T18:52:45.240Z,65.12
2018-11-05T18:55:14.485Z,65.03
2018-11-05T18:57:42.554Z,64.92
2018-11-05T19:00:19.324Z,64.42
2018-11-05T19:02:48.777Z,64.73
2018-11-05T19:05:26.127Z,64.93
2018-11-05T19:07:54.151Z,64.63
2018-11-05T19:10:22.222Z,64.92
2018-11-05T19:12:51.059Z,66.08
2018-11-05T19:15:19.234Z,66.73
2018-11-05T19:17:48.570Z,66.53
2018-11-05T19:20:16.934Z,67.27
2018-11-05T19:22:45.495Z,67.84
2018-11-05T19:25:14.491Z,67.77
2018-11-05T19:27:42.777Z,67.78
2018-11-05T19:30:13.539Z,67.91
2018-11-05T19:32:43.067Z,69.19
2018-11-05T19:35:11.834Z,70.17
2018-11-05T19:37:40.267Z,69.76
2018-11-05T19:40:09.910Z,70.49
2018-11-05T19:42:38.114Z,69.81
2018-11-05T19:45:09.352Z,70.65
2018-11-05T19:47:37.576Z,70.97
2018-11-05T19:50:07.356Z,71.49
2018-11-05T19:52:35.493Z,71.37
2018-11-05T19:55:03.594Z,73.16
2018-11-05T19:57:31.631Z,73.79
2018-11-05T19:59:59.576Z,73.50
2018-11-05T20:02:30.270Z,74.94
2018-11-05T20:04:58.670Z,74.83
2018-11-05T20:07:27.389Z,74.67
2018-11-05T20:09:55.415Z,74.38
2018-11-05T20:12:23.399Z,74.62
2018-11-05T20:14:51.377Z,75.49
2018-11-05T20:17:19.523Z,76.26
2018-11-05T20:19:47.569Z,77.04
2018-11-05T20:22:15.691Z,77.35
2018-11-05T20:24:43.547Z,77.31
2018-11-05T20:27:11.621Z,77.97
2018-11-05T20:29:39.639Z,78.54
2018-11-05T20:32:07.913Z,78.20
2018-11-05T20:34:35.903Z,77.97
2018-11-05T20:37:03.866Z,78.80
2018-11-05T20:39:31.968Z,78.61
2018-11-05T20:42:00.119Z,79.04
2018-11-05T20:44:28.177Z,77.49
2018-11-05T20:46:56.118Z,78.13
2018-11-05T20:49:24.122Z,79.57
2018-11-05T20:51:52.137Z,79.11
2018-11-05T20:54:20.243Z,78.22
2018-11-05T20:56:48.260Z,79.08
2018-11-05T20:59:16.254Z,79.09
2018-11-05T21:01:44.380Z,79.76
2018-11-05T21:04:12.566Z,79.78
2018-11-05T21:06:41.723Z,79.91
2018-11-05T21:09:10.839Z,81.37
2018-11-05T21:11:38.954Z,81.44
2018-11-05T21:14:06.979Z,79.79
2018-11-05T21:16:35.349Z,78.67
2018-11-05T21:19:03.302Z,79.34
2018-11-05T21:21:32.242Z,77.72
2018-11-05T21:24:00.582Z,77.57
2018-11-05T21:26:28.838Z,76.92
2018-11-05T21:28:56.871Z,77.00
2018-11-05T21:31:24.782Z,77.27
2018-11-05T21:33:52.727Z,77.59
2018-11-05T21:36:20.780Z,77.51
2018-11-05T21:38:48.868Z,78.01
2018-11-05T21:41:16.881Z,77.11
2018-11-05T21:43:45.020Z,77.87
2018-11-05T21:46:13.006Z,78.26
2018-11-05T21:48:41.006Z,78.66
2018-11-05T21:51:08.913Z,78.57
2018-11-05T21:53:36.875Z,78.88
2018-11-05T21:56:05.121Z,80.84
2018-11-05T21:58:33.125Z,82.39
2018-11-05T22:01:07.714Z,83.09
2018-11-05T22:03:36.071Z,82.12
2018-11-05T22:06:04.069Z,81.00
2018-11-05T22:08:32.052Z,80.62
2018-11-05T22:11:00.020Z,80.70
2018-11-05T22:13:28.168Z,81.08
2018-11-05T22:15:56.163Z,81.04
2018-11-05T22:18:24.111Z,81.67
2018-11-05T22:20:52.018Z,82.80
2018-11-05T22:23:20.251Z,83.84
2018-11-05T22:25:48.527Z,84.67
2018-11-05T22:28:16.481Z,85.28
2018-11-05T22:30:44.426Z,85.40
2018-11-05T22:33:12.398Z,85.42
2018-11-05T22:35:40.329Z,85.75
2018-11-05T22:38:08.354Z,86.11
2018-11-05T22:40:36.396Z,86.10
2018-11-05T22:43:04.460Z,86.60
2018-11-05T22:45:32.413Z,87.27
2018-11-05T22:48:00.702Z,86.80
2018-11-05T22:50:28.756Z,86.22
2018-11-05T22:52:56.732Z,85.65
2018-11-05T22:55:24.755Z,85.27
2018-11-05T22:57:52.719Z,84.77
2018-11-05T23:00:26.434Z,83.97
2018-11-05T23:02:59.877Z,84.94
2018-11-05T23:05:28.861Z,83.77
2018-11-05T23:07:56.807Z,85.90
2018-11-05T23:10:24.774Z,87.16
2018-11-05T23:12:52.811Z,86.76
2018-11-05T23:15:21.007Z,85.95
2018-11-05T23:17:49.207Z,84.49
2018-11-05T23:20:17.562Z,83.36
2018-11-05T23:22:52.204Z,83.66
2018-11-05T23:25:20.196Z,83.60
2018-11-05T23:27:48.084Z,84.19
2018-11-05T23:30:16.012Z,84.42
2018-11-05T23:32:44.058Z,85.40
2018-11-05T23:35:12.197Z,86.21
2018-11-05T23:37:41.082Z,85.97
2018-11-05T23:40:09.264Z,84.81
2018-11-05T23:42:37.925Z,84.21
2018-11-05T23:45:10.044Z,84.98
2018-11-05T23:47:38.117Z,86.50
2018-11-05T23:50:06.102Z,87.61
2018-11-05T23:52:36.776Z,88.43
2018-11-05T23:55:05.147Z,87.99
2018-11-05T23:57:34.047Z,89.59
